createdAt,value
2023-02-24T00:00:38.847Z,56.78
2023-02-24T00:03:21.619Z,55.85
2023-02-24T00:06:13.028Z,55.63
2023-02-24T00:08:55.530Z,56.38
2023-02-24T00:11:47.260Z,52.88
2023-02-24T00:14:32.577Z,55.95
2023-02-24T00:17:21.868Z,57.72
2023-02-24T00:20:04.894Z,55.90
2023-02-24T00:22:52.899Z,58.88
2023-02-24T00:25:35.554Z,56.72
2023-02-24T00:28:23.823Z,58.90
2023-02-24T00:31:11.647Z,56.38
2023-02-24T00:34:00.004Z,51.83
2023-02-24T00:36:42.566Z,48.83
2023-02-24T00:39:42.393Z,56.20
2023-02-24T00:42:31.582Z,57.38
2023-02-24T00:45:17.724Z,56.80
2023-02-24T00:48:06.617Z,56.63
2023-02-24T00:50:48.909Z,55.65
2023-02-24T00:53:37.617Z,58.63
2023-02-24T00:56:21.736Z,59.65
2023-02-24T00:59:11.513Z,58.38
2023-02-24T01:01:55.721Z,56.20
2023-02-24T01:04:45.602Z,57.55
2023-02-24T01:07:30.512Z,56.72
2023-02-24T01:10:20.549Z,58.10
2023-02-24T01:13:03.573Z,57.63
2023-02-24T01:15:52.560Z,56.35
2023-02-24T01:18:34.806Z,55.40
2023-02-24T01:21:28.533Z,59.70
2023-02-24T01:24:18.971Z,57.90
2023-02-24T01:27:00.748Z,57.78
2023-02-24T01:29:51.607Z,58.40
2023-02-24T01:32:41.030Z,60.40
2023-02-24T01:35:23.562Z,61.08
2023-02-24T01:38:12.557Z,61.20
2023-02-24T01:41:06.515Z,60.97
2023-02-24T01:46:58.644Z,61.67
2023-02-24T01:49:52.113Z,59.70
2023-02-24T01:52:44.515Z,60.72
2023-02-24T01:55:51.562Z,63.37
2023-02-24T01:58:42.566Z,61.38
2023-02-24T02:01:26.021Z,61.67
2023-02-24T02:04:32.600Z,60.55
2023-02-24T02:07:16.849Z,64.30
2023-02-24T02:10:11.610Z,66.50
2023-02-24T02:12:54.978Z,65.83
2023-02-24T02:15:54.564Z,67.88
2023-02-24T02:19:33.728Z,65.03
2023-02-24T02:23:00.044Z,65.80
2023-02-24T02:26:06.595Z,66.43
2023-02-24T02:29:20.904Z,65.50
2023-02-24T02:32:32.425Z,70.13
2023-02-24T02:35:44.582Z,68.07
2023-02-24T02:38:58.507Z,68.88
2023-02-24T02:42:07.806Z,67.30
2023-02-24T02:45:06.417Z,69.78
2023-02-24T02:48:16.587Z,70.43
2023-02-24T02:51:18.331Z,69.70
2023-02-24T02:54:15.612Z,69.82
2023-02-24T02:57:12.899Z,70.75
2023-02-24T03:00:08.546Z,70.75
2023-02-24T03:03:03.379Z,71.35
2023-02-24T03:06:00.638Z,69.13
2023-02-24T03:08:45.843Z,71.18
2023-02-24T03:11:35.586Z,69.07
2023-02-24T03:14:22.852Z,68.05
2023-02-24T03:17:20.604Z,65.45
2023-02-24T03:20:18.618Z,63.65
2023-02-24T03:23:24.609Z,64.18
2023-02-24T03:26:18.277Z,62.25
2023-02-24T03:29:18.548Z,57.45
2023-02-24T03:32:11.968Z,55.65
2023-02-24T03:35:19.596Z,56.53
2023-02-24T03:38:04.781Z,57.97
2023-02-24T03:41:01.594Z,58.10
2023-02-24T03:43:56.490Z,58.28
2023-02-24T03:46:40.583Z,65.32
2023-02-24T03:49:23.582Z,56.17
2023-02-24T03:52:30.851Z,60.97
2023-02-24T03:55:59.873Z,62.35
2023-02-24T03:58:55.530Z,56.78
2023-02-24T04:01:59.077Z,62.45
2023-02-24T04:05:06.641Z,63.10
2023-02-24T04:08:10.513Z,56.92
2023-02-24T04:11:40.521Z,60.33
2023-02-24T04:14:40.854Z,52.08
2023-02-24T04:17:37.588Z,51.08
2023-02-24T04:20:33.741Z,50.53
2023-02-24T04:23:24.522Z,47.45
2023-02-24T04:26:17.047Z,49.25
2023-02-24T04:28:59.530Z,51.70
2023-02-24T04:31:49.196Z,52.28
2023-02-24T04:34:32.639Z,47.47
2023-02-24T04:37:24.307Z,52.05
2023-02-24T04:40:21.463Z,51.13
2023-02-24T04:43:04.099Z,49.78
2023-02-24T04:45:52.548Z,49.30
2023-02-24T04:48:35.902Z,53.63
2023-02-24T04:51:24.475Z,55.42
2023-02-24T04:54:07.051Z,62.15
2023-02-24T04:56:56.228Z,60.90
2023-02-24T04:59:45.976Z,78.55
2023-02-24T05:02:29.538Z,67.15
2023-02-24T05:05:17.752Z,55.53
2023-02-24T05:08:02.612Z,48.70
2023-02-24T05:10:53.845Z,40.55
2023-02-24T05:13:41.514Z,44.38
2023-02-24T05:16:31.063Z,52.58
2023-02-24T05:19:31.597Z,48.55
2023-02-24T05:22:19.837Z,47.03
2023-02-24T05:25:04.581Z,45.25
2023-02-24T05:27:52.843Z,49.40
2023-02-24T05:30:35.634Z,45.20
2023-02-24T05:33:30.402Z,47.75
2023-02-24T05:36:26.941Z,45.17
2023-02-24T05:39:27.420Z,41.58
2023-02-24T05:42:16.544Z,45.33
2023-02-24T05:44:58.808Z,44.00
2023-02-24T05:47:47.647Z,44.58
2023-02-24T05:50:30.031Z,41.40
2023-02-24T05:53:18.544Z,41.75
2023-02-24T05:56:07.506Z,38.60
2023-02-24T05:59:03.095Z,39.65
2023-02-24T06:01:49.631Z,41.50
2023-02-24T06:04:40.953Z,41.03
2023-02-24T06:07:32.530Z,40.40
2023-02-24T06:10:23.650Z,43.90
2023-02-24T06:13:05.536Z,37.08
2023-02-24T06:15:55.798Z,40.38
2023-02-24T06:18:37.494Z,41.10
2023-02-24T06:21:27.476Z,43.72
2023-02-24T06:24:10.871Z,43.63
2023-02-24T06:27:01.571Z,42.17
2023-02-24T06:29:45.993Z,36.88
2023-02-24T06:32:34.721Z,32.95
2023-02-24T06:35:18.403Z,25.90
2023-02-24T06:38:07.557Z,23.17
2023-02-24T06:41:05.345Z,25.20
2023-02-24T06:43:55.583Z,22.02
2023-02-24T06:46:37.782Z,31.45
2023-02-24T06:49:27.527Z,22.58
2023-02-24T06:52:10.007Z,31.30
2023-02-24T06:54:59.540Z,31.58
2023-02-24T06:57:44.940Z,26.33
2023-02-24T07:00:44.597Z,18.63
2023-02-24T07:03:26.930Z,19.65
2023-02-24T07:06:31.587Z,17.33
2023-02-24T07:09:17.853Z,18.63
2023-02-24T07:12:10.551Z,17.10
2023-02-24T07:14:52.913Z,21.67
2023-02-24T07:17:42.940Z,17.95
2023-02-24T07:20:27.247Z,19.85
2023-02-24T07:23:17.509Z,20.50
2023-02-24T07:25:59.825Z,15.80
2023-02-24T07:28:50.530Z,15.50
2023-02-24T07:31:35.457Z,16.83
2023-02-24T07:34:31.534Z,19.02
2023-02-24T07:37:14.338Z,18.98
2023-02-24T07:40:10.577Z,16.98
2023-02-24T07:43:01.895Z,20.08
2023-02-24T07:45:43.635Z,18.15
2023-02-24T07:48:32.552Z,20.98
2023-02-24T07:51:26.545Z,18.63
2023-02-24T07:54:16.795Z,19.45
2023-02-24T07:57:06.591Z,20.52
2023-02-24T07:59:55.173Z,18.70
2023-02-24T08:02:46.603Z,16.70
2023-02-24T08:05:34.965Z,17.10
2023-02-24T08:08:17.897Z,17.05
2023-02-24T08:11:05.877Z,18.02
2023-02-24T08:13:48.523Z,20.00
2023-02-24T08:16:42.937Z,18.83
2023-02-24T08:19:30.549Z,19.50
2023-02-24T08:22:20.741Z,18.33
2023-02-24T08:25:08.628Z,17.33
2023-02-24T08:28:08.964Z,17.85
2023-02-24T08:30:52.574Z,16.63
2023-02-24T08:33:41.847Z,18.30
2023-02-24T08:36:29.586Z,15.88
2023-02-24T08:39:17.975Z,15.85
2023-02-24T08:42:06.529Z,14.65
2023-02-24T08:44:51.506Z,13.68
2023-02-24T08:47:43.514Z,13.95
2023-02-24T08:50:32.171Z,14.60
2023-02-24T08:53:26.488Z,14.43
2023-02-24T08:56:12.377Z,14.52
2023-02-24T08:59:13.564Z,16.10
2023-02-24T09:02:15.563Z,17.08
2023-02-24T09:05:07.600Z,16.27
2023-02-24T09:07:55.638Z,12.93
2023-02-24T09:10:44.960Z,11.32
2023-02-24T09:13:33.930Z,11.77
2023-02-24T09:16:24.546Z,11.52
2023-02-24T09:19:24.987Z,14.10
2023-02-24T09:22:22.536Z,12.80
2023-02-24T09:25:19.566Z,12.07
2023-02-24T09:28:18.649Z,10.95
2023-02-24T09:31:06.897Z,11.02
2023-02-24T09:33:58.551Z,9.85
2023-02-24T09:36:46.162Z,9.30
2023-02-24T09:39:35.643Z,9.40
2023-02-24T09:42:24.803Z,8.65
2023-02-24T09:45:40.666Z,8.82
2023-02-24T09:48:51.559Z,10.57
2023-02-24T09:51:43.270Z,9.60
2023-02-24T09:54:32.577Z,9.57
2023-02-24T09:57:45.440Z,9.60
2023-02-24T10:00:41.588Z,9.63
2023-02-24T10:03:55.592Z,10.90
2023-02-24T10:06:46.808Z,9.95
2023-02-24T10:09:34.721Z,10.07
2023-02-24T10:12:22.852Z,10.30
2023-02-24T10:15:39.538Z,11.65
2023-02-24T10:18:49.586Z,8.85
2023-02-24T10:22:03.623Z,7.05
2023-02-24T10:24:57.580Z,6.68
2023-02-24T10:28:07.828Z,8.23
2023-02-24T10:31:34.651Z,7.00
2023-02-24T10:34:32.710Z,6.57
2023-02-24T10:37:30.524Z,7.65
2023-02-24T10:40:51.456Z,8.57
2023-02-24T10:43:52.511Z,9.77
2023-02-24T10:46:45.895Z,9.40
2023-02-24T10:49:34.867Z,9.13
2023-02-24T10:52:44.549Z,9.32
2023-02-24T10:55:46.611Z,8.35
2023-02-24T10:58:52.551Z,8.52
2023-02-24T11:01:41.875Z,8.10
2023-02-24T11:04:35.579Z,8.27
2023-02-24T11:07:41.589Z,8.63
2023-02-24T11:10:49.436Z,8.55
2023-02-24T11:14:00.632Z,8.70
2023-02-24T11:17:10.952Z,9.50
2023-02-24T11:20:18.889Z,9.05
2023-02-24T11:23:01.856Z,8.90
2023-02-24T11:26:01.548Z,9.02
2023-02-24T11:29:07.821Z,8.85
2023-02-24T11:32:15.222Z,8.68
2023-02-24T11:35:16.945Z,8.63
2023-02-24T11:38:15.585Z,8.02
2023-02-24T11:41:19.626Z,7.63
2023-02-24T11:44:15.356Z,8.43
2023-02-24T11:47:10.780Z,7.63
2023-02-24T11:50:11.842Z,8.18
2023-02-24T11:52:57.782Z,8.75
2023-02-24T11:56:03.511Z,8.18
2023-02-24T11:59:13.510Z,8.32
2023-02-24T12:02:18.554Z,8.60
2023-02-24T12:05:27.454Z,7.85
2023-02-24T12:08:25.689Z,8.85
2023-02-24T12:11:20.143Z,8.27
2023-02-24T12:14:23.502Z,7.88
2023-02-24T12:17:39.462Z,9.82
2023-02-24T12:20:49.534Z,9.77
2023-02-24T12:23:36.834Z,9.10
2023-02-24T12:26:36.566Z,9.32
2023-02-24T12:30:13.559Z,9.27
2023-02-24T12:33:20.834Z,10.48
2023-02-24T12:36:31.009Z,9.98
2023-02-24T12:40:05.963Z,10.52
2023-02-24T12:42:54.532Z,9.77
2023-02-24T12:45:54.828Z,9.88
2023-02-24T12:49:19.540Z,10.80
2023-02-24T12:52:13.898Z,11.90
2023-02-24T12:55:26.460Z,11.38
2023-02-24T12:58:34.449Z,12.52
2023-02-24T13:01:42.471Z,11.32
2023-02-24T13:05:03.512Z,13.15
2023-02-24T13:08:22.782Z,12.68
2023-02-24T13:11:19.775Z,14.57
2023-02-24T13:14:08.554Z,14.82
2023-02-24T13:16:57.930Z,16.35
2023-02-24T13:19:47.802Z,16.98
2023-02-24T13:22:39.585Z,17.30
2023-02-24T13:25:24.663Z,17.38
2023-02-24T13:28:36.635Z,16.92
2023-02-24T13:31:27.388Z,16.33
2023-02-24T13:34:38.490Z,16.98
2023-02-24T13:37:45.987Z,16.52
2023-02-24T13:40:34.510Z,15.85
2023-02-24T13:43:36.015Z,15.88
2023-02-24T13:46:27.519Z,15.95
2023-02-24T13:49:31.381Z,18.02
2023-02-24T13:52:14.496Z,18.17
2023-02-24T13:55:04.796Z,18.63
2023-02-24T13:58:13.115Z,18.08
2023-02-24T14:01:18.878Z,18.80
2023-02-24T14:04:39.551Z,17.20
2023-02-24T14:07:38.026Z,17.77
2023-02-24T14:10:26.569Z,17.65
2023-02-24T14:13:28.818Z,18.77
2023-02-24T14:16:18.689Z,20.60
2023-02-24T14:19:12.032Z,21.75
2023-02-24T14:22:00.547Z,22.00
2023-02-24T14:24:49.813Z,20.08
2023-02-24T14:27:35.645Z,19.98
2023-02-24T14:30:42.022Z,19.50
2023-02-24T14:33:36.535Z,20.25
2023-02-24T14:36:28.851Z,20.25
2023-02-24T14:39:32.493Z,20.85
2023-02-24T14:45:34.753Z,20.83
2023-02-24T14:48:34.556Z,19.85
2023-02-24T14:51:55.938Z,19.88
2023-02-24T14:55:23.572Z,21.58
2023-02-24T14:58:20.828Z,21.38
2023-02-24T15:01:11.551Z,23.35
2023-02-24T15:04:07.771Z,22.33
2023-02-24T15:06:51.527Z,24.10
2023-02-24T15:09:48.821Z,22.35
2023-02-24T15:12:52.463Z,23.88
2023-02-24T15:15:46.519Z,24.75
2023-02-24T15:18:44.444Z,23.13
2023-02-24T15:21:32.768Z,24.63
2023-02-24T15:24:40.476Z,24.67
2023-02-24T15:27:33.926Z,24.08
2023-02-24T15:30:32.662Z,25.57
2023-02-24T15:33:30.828Z,25.00
2023-02-24T15:36:28.536Z,25.50
2023-02-24T15:39:25.833Z,23.52
2023-02-24T15:42:41.504Z,25.25
2023-02-24T15:45:38.898Z,24.00
2023-02-24T15:48:35.512Z,24.42
2023-02-24T15:51:38.737Z,23.10
2023-02-24T15:54:32.525Z,26.27
2023-02-24T16:00:05.569Z,25.65
2023-02-24T16:02:54.542Z,26.40
2023-02-24T16:05:36.967Z,25.33
2023-02-24T16:08:27.925Z,25.73
2023-02-24T16:11:09.823Z,26.10
2023-02-24T16:14:05.580Z,25.77
2023-02-24T16:16:49.067Z,26.95
2023-02-24T16:19:38.488Z,27.83
2023-02-24T16:22:27.574Z,25.67
2023-02-24T16:25:17.106Z,26.17
2023-02-24T16:28:04.522Z,27.30
2023-02-24T16:30:47.569Z,27.48
2023-02-24T16:33:51.827Z,27.92
2023-02-24T16:36:43.816Z,28.05
2023-02-24T16:39:26.502Z,28.63
2023-02-24T16:42:23.548Z,27.30
2023-02-24T16:45:12.553Z,25.58
2023-02-24T16:48:01.255Z,27.05
2023-02-24T16:50:52.557Z,29.05
2023-02-24T16:53:35.961Z,26.88
2023-02-24T16:56:24.692Z,26.80
2023-02-24T16:59:13.459Z,26.70
2023-02-24T17:02:03.562Z,27.85
2023-02-24T17:04:45.957Z,28.40
2023-02-24T17:07:34.537Z,28.58
2023-02-24T17:10:18.079Z,28.10
2023-02-24T17:13:06.541Z,27.92
2023-02-24T17:15:55.839Z,28.05
2023-02-24T17:18:44.826Z,29.27
2023-02-24T17:21:27.482Z,28.52
2023-02-24T17:24:20.900Z,30.17
2023-02-24T17:27:06.517Z,30.63
2023-02-24T17:29:56.012Z,32.80
2023-02-24T17:32:38.663Z,31.48
2023-02-24T17:35:20.851Z,32.95
2023-02-24T17:38:09.531Z,30.23
2023-02-24T17:41:05.400Z,32.33
2023-02-24T17:44:01.528Z,32.63
2023-02-24T17:46:50.541Z,32.75
2023-02-24T17:49:32.856Z,32.05
2023-02-24T17:52:21.536Z,29.67
2023-02-24T17:55:03.913Z,31.33
2023-02-24T17:57:54.663Z,33.30
2023-02-24T18:00:39.500Z,31.03
2023-02-24T18:03:28.591Z,32.65
2023-02-24T18:06:12.743Z,29.70
2023-02-24T18:09:02.563Z,31.55
2023-02-24T18:11:46.842Z,32.53
2023-02-24T18:14:36.459Z,29.80
2023-02-24T18:17:19.886Z,30.38
2023-02-24T18:20:08.807Z,30.55
2023-02-24T18:22:50.979Z,31.63
2023-02-24T18:25:39.900Z,31.98
2023-02-24T18:28:22.065Z,30.38
2023-02-24T18:31:18.573Z,30.95
2023-02-24T18:34:02.752Z,31.27
2023-02-24T18:36:51.585Z,32.97
2023-02-24T18:39:33.752Z,30.77
2023-02-24T18:42:29.582Z,32.72
2023-02-24T18:45:13.077Z,32.85
2023-02-24T18:48:13.361Z,32.90
2023-02-24T18:51:09.438Z,33.22
2023-02-24T18:53:53.612Z,32.58
2023-02-24T18:59:25.258Z,32.35
2023-02-24T19:02:14.691Z,34.50
2023-02-24T19:04:57.050Z,33.58
2023-02-24T19:07:45.592Z,34.67
2023-02-24T19:10:27.874Z,35.28
2023-02-24T19:13:16.493Z,33.38
2023-02-24T19:15:58.954Z,31.65
2023-02-24T19:18:47.533Z,33.63
2023-02-24T19:21:30.864Z,33.25
2023-02-24T19:24:21.489Z,35.70
2023-02-24T19:27:04.886Z,34.38
2023-02-24T19:29:53.427Z,34.83
2023-02-24T19:32:42.508Z,35.50
2023-02-24T19:35:30.795Z,34.78
2023-02-24T19:38:15.494Z,34.85
2023-02-24T19:41:01.067Z,35.83
2023-02-24T19:43:49.591Z,34.92
2023-02-24T19:46:35.321Z,34.72
2023-02-24T19:49:24.529Z,36.63
2023-02-24T19:52:12.766Z,35.17
2023-02-24T19:54:54.592Z,35.20
2023-02-24T19:57:43.850Z,34.65
2023-02-24T20:00:28.553Z,36.03
2023-02-24T20:03:10.683Z,35.85
2023-02-24T20:05:59.559Z,35.25
2023-02-24T20:08:47.835Z,38.85
2023-02-24T20:11:31.488Z,35.35
2023-02-24T20:14:21.537Z,36.38
2023-02-24T20:17:10.607Z,36.78
2023-02-24T20:19:52.677Z,37.35
2023-02-24T20:22:41.448Z,35.70
2023-02-24T20:25:23.864Z,37.20
2023-02-24T20:28:12.572Z,36.40
2023-02-24T20:30:56.131Z,36.53
2023-02-24T20:33:45.596Z,38.25
2023-02-24T20:36:36.758Z,36.42
2023-02-24T20:39:21.429Z,37.30
2023-02-24T20:42:19.537Z,38.25
2023-02-24T20:45:01.717Z,38.10
2023-02-24T20:47:50.467Z,39.38
2023-02-24T20:50:39.532Z,40.63
2023-02-24T20:53:21.935Z,37.97
2023-02-24T20:56:14.598Z,37.80
2023-02-24T20:59:05.468Z,37.40
2023-02-24T21:01:55.537Z,37.17
2023-02-24T21:04:44.505Z,36.60
2023-02-24T21:07:33.496Z,37.30
2023-02-24T21:10:15.821Z,37.72
2023-02-24T21:13:04.523Z,35.72
2023-02-24T21:15:47.761Z,37.92
2023-02-24T21:18:36.434Z,39.40
2023-02-24T21:21:20.568Z,38.22
2023-02-24T21:24:09.431Z,37.90
2023-02-24T21:26:51.963Z,39.50
2023-02-24T21:29:40.499Z,39.08
2023-02-24T21:32:29.521Z,41.13
2023-02-24T21:35:17.692Z,39.03
2023-02-24T21:38:00.453Z,36.83
2023-02-24T21:40:52.471Z,40.07
2023-02-24T21:43:42.757Z,41.40
2023-02-24T21:46:25.784Z,39.80
2023-02-24T21:49:20.223Z,38.17
2023-02-24T21:52:02.545Z,39.15
2023-02-24T21:54:50.874Z,39.20
2023-02-24T21:57:33.523Z,37.58
2023-02-24T22:00:25.167Z,40.47
2023-02-24T22:03:08.611Z,38.63
2023-02-24T22:05:56.788Z,41.20
2023-02-24T22:08:39.575Z,41.83
2023-02-24T22:11:27.726Z,40.42
2023-02-24T22:14:10.568Z,42.10
2023-02-24T22:16:58.981Z,39.30
2023-02-24T22:19:41.589Z,42.85
2023-02-24T22:22:23.975Z,40.45
2023-02-24T22:25:12.798Z,41.17
2023-02-24T22:27:54.972Z,40.95
2023-02-24T22:30:43.458Z,40.53
2023-02-24T22:33:32.796Z,41.25
2023-02-24T22:36:17.471Z,40.58
2023-02-24T22:39:16.559Z,41.33
2023-02-24T22:42:12.371Z,43.88
2023-02-24T22:45:01.483Z,42.85
2023-02-24T22:47:43.788Z,43.35
2023-02-24T22:50:26.501Z,44.67
2023-02-24T22:55:58.531Z,43.55
2023-02-24T22:58:41.168Z,47.72
2023-02-24T23:01:45.472Z,50.50
2023-02-24T23:07:18.494Z,48.80
2023-02-24T23:10:00.662Z,55.43
2023-02-24T23:12:49.445Z,54.42
2023-02-24T23:15:38.472Z,55.90
2023-02-24T23:18:20.747Z,60.10
2023-02-24T23:21:11.466Z,60.15
2023-02-24T23:23:57.788Z,65.60
2023-02-24T23:26:55.452Z,68.65
2023-02-24T23:29:37.776Z,73.18
2023-02-24T23:32:26.596Z,75.97
2023-02-24T23:35:08.754Z,74.97
2023-02-24T23:37:57.449Z,74.13
2023-02-24T23:40:49.595Z,74.78
2023-02-24T23:43:39.464Z,78.03
2023-02-24T23:46:22.574Z,77.20
2023-02-24T23:49:13.526Z,73.00
2023-02-24T23:51:55.738Z,75.13
2023-02-24T23:54:44.444Z,76.15
2023-02-24T23:57:28.779Z,76.10
